To NAV CANADA Home Page Login to a new session Search on AWWS site Disclaimer Vers la page française équivalente Tips FAQ What's new on the site To the Forecasts and Observations / NOTAM section To "File a Flight Plan" website Publications and other links Update of the User's profile FIC Telephone Numbers My Weather Data Folder Route Weather Data Regional Weather Data Local Weather Data To the Forecasts and Observations / NOTAM section
Request Generated 11/16/2018 at 01:26:03 UTC . Weather information available at that time is displayed.

METAR/TAF

SLAVE LAKE/AB    (show WxCam)

METAR CYZH 160100Z AUTO 05008KT 2 1/2SM -SN FEW035 OVC050 M07/M08 A3006 RMK SLP217=
SPECI CYZH 160050Z AUTO 05008G16KT 030V090 2 1/2SM -SN FEW031 OVC050 M06/M08 A3006 RMK SLP215=
SPECI CYZH 160020Z AUTO 06007KT 040V120 1 1/2SM -SN OVC025 M06/M07 A3004 RMK SLP208=
SPECI CYZH 160018Z AUTO 09005KT 020V120 1 1/4SM -SN OVC025 M05/M07 A3004 RMK SLP208=
SPECI CYZH 160006Z AUTO 07003KT 040V120 1 1/4SM -SN OVC023 M05/M06 A3003 RMK SLP206=
METAR CYZH 160000Z AUTO 08006KT 010V120 1 1/2SM -SN BKN023 OVC031 M05/M06 A3003 RMK SLP205=
SPECI CYZH 152359Z AUTO 08006KT 010V120 1 1/2SM -SN BKN023 OVC031 M05/M06 A3003 RMK SLP205=
SPECI CYZH 152339Z AUTO 09006KT 040V110 1 1/2SM -SN SCT017 BKN027 OVC033 M05/M06 A3003 RMK SLP203=
SPECI CYZH 152338Z AUTO 08006KT 040V110 1 1/4SM -SN SCT017 BKN027 OVC033 M05/M06 A3003 RMK SLP203=
SPECI CYZH 152331Z AUTO 08006KT 040V110 1 1/4SM -SN BKN017 BKN023 OVC030 M04/M06 A3002 RMK SLP202=
SPECI CYZH 152321Z AUTO 08006KT 040V110 2 1/4SM -SN OVC015 M04/M06 A3002 RMK SLP199=
METAR CYZH 152300Z AUTO 08005KT 040V110 3SM -SN OVC013 M04/M06 A3002 RMK SLP198=

TAF CYZH 160038Z 1601/1613 VRB03KT 1SM -SN OVC015 TEMPO 1601/1605 4SM
-SN OVC025
FM160500 34012G22KT P6SM BKN030 TEMPO 1605/1613 4SM -SN OVC020
RMK FCST BASED ON AUTO OBS. NXT FCST BY 160700Z=
Your time UTC time
Weather data provided by Environment Canada and NAV CANADA